sensor_id;sensor_type;location;lat;lon;timestamp;pressure;altitude;pressure_sealevel;temperature;humidity
21781;BME280;52576;53.614;9.894;2023-03-21T00:01:34;101317.53;;;7.21;87.39
21781;BME280;52576;53.614;9.894;2023-03-21T00:03:39;101320.22;;;7.19;87.45
21781;BME280;52576;53.614;9.894;2023-03-21T00:05:44;101322.81;;;7.19;87.58
21781;BME280;52576;53.614;9.894;2023-03-21T00:07:50;101319.38;;;7.19;87.69
21781;BME280;52576;53.614;9.894;2023-03-21T00:09:54;101321.97;;;7.19;87.79
21781;BME280;52576;53.614;9.894;2023-03-21T00:12:26;101319.38;;;7.19;87.76
21781;BME280;52576;53.614;9.894;2023-03-21T00:14:34;101315.84;;;7.20;87.65
21781;BME280;52576;53.614;9.894;2023-03-21T00:16:39;101320.28;;;7.18;87.79
21781;BME280;52576;53.614;9.894;2023-03-21T00:18:49;101312.47;;;7.18;87.66
21781;BME280;52576;53.614;9.894;2023-03-21T00:20:56;101315.06;;;7.18;87.82
21781;BME280;52576;53.614;9.894;2023-03-21T00:23:20;101312.47;;;7.18;87.98
21781;BME280;52576;53.614;9.894;2023-03-21T00:25:24;101308.09;;;7.18;87.86
21781;BME280;52576;53.614;9.894;2023-03-21T00:27:27;101315.00;;;7.19;87.88
21781;BME280;52576;53.614;9.894;2023-03-21T00:29:51;101310.63;;;7.20;87.99
21781;BME280;52576;53.614;9.894;2023-03-21T00:31:55;101304.56;;;7.19;87.75
21781;BME280;52576;53.614;9.894;2023-03-21T00:34:00;101309.84;;;7.18;87.96
21781;BME280;52576;53.614;9.894;2023-03-21T00:36:06;101313.38;;;7.17;87.95
21781;BME280;52576;53.614;9.894;2023-03-21T00:38:10;101306.47;;;7.15;87.88
21781;BME280;52576;53.614;9.894;2023-03-21T00:40:13;101307.38;;;7.14;87.87
21781;BME280;52576;53.614;9.894;2023-03-21T00:42:28;101304.75;;;7.14;88.07
21781;BME280;52576;53.614;9.894;2023-03-21T00:44:32;101309.06;;;7.15;88.20
21781;BME280;52576;53.614;9.894;2023-03-21T00:46:37;101309.00;;;7.17;88.19
21781;BME280;52576;53.614;9.894;2023-03-21T00:48:55;101300.19;;;7.20;88.27
21781;BME280;52576;53.614;9.894;2023-03-21T00:51:00;101300.19;;;7.20;88.30
21781;BME280;52576;53.614;9.894;2023-03-21T00:53:03;101296.69;;;7.21;88.35
21781;BME280;52576;53.614;9.894;2023-03-21T00:55:10;101287.94;;;7.22;88.47
21781;BME280;52576;53.614;9.894;2023-03-21T00:57:15;101294.00;;;7.22;88.50
21781;BME280;52576;53.614;9.894;2023-03-21T00:59:21;101294.84;;;7.23;88.37
21781;BME280;52576;53.614;9.894;2023-03-21T01:01:24;101296.47;;;7.25;88.58
21781;BME280;52576;53.614;9.894;2023-03-21T01:03:33;101290.41;;;7.25;88.45
21781;BME280;52576;53.614;9.894;2023-03-21T01:05:47;101288.66;;;7.25;88.53
21781;BME280;52576;53.614;9.894;2023-03-21T01:08:08;101284.28;;;7.26;88.51
21781;BME280;52576;53.614;9.894;2023-03-21T01:10:29;101279.06;;;7.26;88.43
21781;BME280;52576;53.614;9.894;2023-03-21T01:12:32;101284.28;;;7.26;88.50
21781;BME280;52576;53.614;9.894;2023-03-21T01:14:37;101275.56;;;7.27;88.20
21781;BME280;52576;53.614;9.894;2023-03-21T01:16:41;101283.38;;;7.27;88.43
21781;BME280;52576;53.614;9.894;2023-03-21T01:18:44;101277.22;;;7.28;88.49
21781;BME280;52576;53.614;9.894;2023-03-21T01:20:48;101281.53;;;7.29;88.53
21781;BME280;52576;53.614;9.894;2023-03-21T01:22:51;101280.59;;;7.30;88.54
21781;BME280;52576;53.614;9.894;2023-03-21T01:24:56;101281.44;;;7.30;88.56
21781;BME280;52576;53.614;9.894;2023-03-21T01:27:20;101280.59;;;7.30;88.56
21781;BME280;52576;53.614;9.894;2023-03-21T01:29:23;101274.53;;;7.29;88.66
21781;BME280;52576;53.614;9.894;2023-03-21T01:31:27;101276.25;;;7.30;88.64
21781;BME280;52576;53.614;9.894;2023-03-21T01:33:32;101273.69;;;7.29;88.58
21781;BME280;52576;53.614;9.894;2023-03-21T01:35:36;101273.69;;;7.29;88.49
21781;BME280;52576;53.614;9.894;2023-03-21T01:37:54;101272.84;;;7.28;88.55
21781;BME280;52576;53.614;9.894;2023-03-21T01:39:59;101274.53;;;7.29;88.70
21781;BME280;52576;53.614;9.894;2023-03-21T01:42:03;101277.16;;;7.29;88.69
21781;BME280;52576;53.614;9.894;2023-03-21T01:44:10;101273.63;;;7.30;88.80
21781;BME280;52576;53.614;9.894;2023-03-21T01:46:25;101277.94;;;7.31;88.78
21781;BME280;52576;53.614;9.894;2023-03-21T01:49:10;101272.72;;;7.31;88.78
21781;BME280;52576;53.614;9.894;2023-03-21T01:51:17;101271.88;;;7.31;88.82
21781;BME280;52576;53.614;9.894;2023-03-21T01:53:32;101269.25;;;7.31;88.77
21781;BME280;52576;53.614;9.894;2023-03-21T01:55:38;101266.66;;;7.31;88.82
21781;BME280;52576;53.614;9.894;2023-03-21T01:57:53;101265.75;;;7.32;88.85
21781;BME280;52576;53.614;9.894;2023-03-21T02:00:17;101265.81;;;7.30;88.85
21781;BME280;52576;53.614;9.894;2023-03-21T02:02:30;101258.06;;;7.29;88.81
21781;BME280;52576;53.614;9.894;2023-03-21T02:04:48;101258.06;;;7.29;88.86
21781;BME280;52576;53.614;9.894;2023-03-21T02:07:01;101257.19;;;7.28;88.96
21781;BME280;52576;53.614;9.894;2023-03-21T02:09:24;101253.63;;;7.31;89.17
21781;BME280;52576;53.614;9.894;2023-03-21T02:11:31;101250.09;;;7.32;89.10
21781;BME280;52576;53.614;9.894;2023-03-21T02:13:35;101256.09;;;7.34;89.12
21781;BME280;52576;53.614;9.894;2023-03-21T02:15:46;101257.78;;;7.35;89.23
21781;BME280;52576;53.614;9.894;2023-03-21T02:17:59;101255.09;;;7.36;89.32
21781;BME280;52576;53.614;9.894;2023-03-21T02:20:38;101250.75;;;7.37;89.39
21781;BME280;52576;53.614;9.894;2023-03-21T02:23:35;101251.59;;;7.37;89.27
21781;BME280;52576;53.614;9.894;2023-03-21T02:26:35;101245.53;;;7.37;89.18
21781;BME280;52576;53.614;9.894;2023-03-21T02:28:56;101246.38;;;7.37;89.19
21781;BME280;52576;53.614;9.894;2023-03-21T02:31:18;101241.22;;;7.36;89.16
21781;BME280;52576;53.614;9.894;2023-03-21T02:36:16;101232.56;;;7.35;89.35
21781;BME280;52576;53.614;9.894;2023-03-21T02:38:31;101238.53;;;7.37;89.29
21781;BME280;52576;53.614;9.894;2023-03-21T02:40:43;101233.25;;;7.39;89.29
21781;BME280;52576;53.614;9.894;2023-03-21T02:42:54;101240.16;;;7.40;89.43
21781;BME280;52576;53.614;9.894;2023-03-21T02:45:11;101235.78;;;7.40;89.35
21781;BME280;52576;53.614;9.894;2023-03-21T02:47:28;101240.16;;;7.40;89.38
21781;BME280;52576;53.614;9.894;2023-03-21T02:49:38;101236.72;;;7.39;89.33
21781;BME280;52576;53.614;9.894;2023-03-21T02:51:47;101234.09;;;7.39;89.28
21781;BME280;52576;53.614;9.894;2023-03-21T02:53:57;101232.34;;;7.40;89.41
21781;BME280;52576;53.614;9.894;2023-03-21T02:56:23;101228.88;;;7.39;89.43
21781;BME280;52576;53.614;9.894;2023-03-21T02:58:31;101227.91;;;7.42;89.45
21781;BME280;52576;53.614;9.894;2023-03-21T03:00:35;101229.59;;;7.43;89.53
21781;BME280;52576;53.614;9.894;2023-03-21T03:02:40;101230.44;;;7.43;89.31
21781;BME280;52576;53.614;9.894;2023-03-21T03:04:44;101223.47;;;7.44;89.52
21781;BME280;52576;53.614;9.894;2023-03-21T03:07:12;101217.34;;;7.45;89.49
21781;BME280;52576;53.614;9.894;2023-03-21T03:09:27;101224.25;;;7.46;89.52
21781;BME280;52576;53.614;9.894;2023-03-21T03:11:34;101226.84;;;7.46;89.57
21781;BME280;52576;53.614;9.894;2023-03-21T03:16:43;101223.41;;;7.45;89.63
21781;BME280;52576;53.614;9.894;2023-03-21T03:18:54;101213.81;;;7.46;89.71
21781;BME280;52576;53.614;9.894;2023-03-21T03:21:03;101217.19;;;7.48;89.68
21781;BME280;52576;53.614;9.894;2023-03-21T03:23:13;101213.66;;;7.49;89.64
21781;BME280;52576;53.614;9.894;2023-03-21T03:25:23;101210.16;;;7.50;89.68
21781;BME280;52576;53.614;9.894;2023-03-21T03:27:43;101208.31;;;7.52;89.67
21781;BME280;52576;53.614;9.894;2023-03-21T03:29:48;101210.91;;;7.52;89.78
21781;BME280;52576;53.614;9.894;2023-03-21T03:32:00;101201.22;;;7.54;89.75
21781;BME280;52576;53.614;9.894;2023-03-21T03:34:09;101202.94;;;7.55;89.80
21781;BME280;52576;53.614;9.894;2023-03-21T03:36:17;101202.84;;;7.57;89.83
21781;BME280;52576;53.614;9.894;2023-03-21T03:38:37;101206.31;;;7.57;89.69
21781;BME280;52576;53.614;9.894;2023-03-21T03:40:47;101210.69;;;7.57;89.76
21781;BME280;52576;53.614;9.894;2023-03-21T03:43:21;101207.16;;;7.58;89.75
21781;BME280;52576;53.614;9.894;2023-03-21T03:45:29;101204.53;;;7.58;89.68
21781;BME280;52576;53.614;9.894;2023-03-21T03:47:37;101208.00;;;7.58;89.62
21781;BME280;52576;53.614;9.894;2023-03-21T03:50:02;101206.25;;;7.59;89.78
21781;BME280;52576;53.614;9.894;2023-03-21T03:52:16;101204.47;;;7.59;89.77
21781;BME280;52576;53.614;9.894;2023-03-21T03:54:32;101209.69;;;7.59;89.80
21781;BME280;52576;53.614;9.894;2023-03-21T03:56:39;101209.69;;;7.59;89.68
21781;BME280;52576;53.614;9.894;2023-03-21T03:58:43;101208.00;;;7.58;89.77
21781;BME280;52576;53.614;9.894;2023-03-21T04:00:54;101205.38;;;7.58;90.14
21781;BME280;52576;53.614;9.894;2023-03-21T04:02:58;101202.78;;;7.58;89.87
21781;BME280;52576;53.614;9.894;2023-03-21T04:05:03;101202.63;;;7.61;89.89
21781;BME280;52576;53.614;9.894;2023-03-21T04:07:11;101197.56;;;7.58;89.82
21781;BME280;52576;53.614;9.894;2023-03-21T04:09:15;101198.41;;;7.59;89.57
21781;BME280;52576;53.614;9.894;2023-03-21T04:11:27;101205.31;;;7.60;89.83
21781;BME280;52576;53.614;9.894;2023-03-21T04:13:32;101199.25;;;7.59;89.84
21781;BME280;52576;53.614;9.894;2023-03-21T04:15:39;101200.19;;;7.58;89.85
21781;BME280;52576;53.614;9.894;2023-03-21T04:17:48;101202.72;;;7.60;89.77
21781;BME280;52576;53.614;9.894;2023-03-21T04:19:51;101200.94;;;7.60;89.86
21781;BME280;52576;53.614;9.894;2023-03-21T04:22:11;101203.56;;;7.60;89.83
21781;BME280;52576;53.614;9.894;2023-03-21T04:24:17;101206.16;;;7.60;89.91
21781;BME280;52576;53.614;9.894;2023-03-21T04:26:23;101198.28;;;7.62;89.93
21781;BME280;52576;53.614;9.894;2023-03-21T04:28:48;101196.50;;;7.62;89.81
21781;BME280;52576;53.614;9.894;2023-03-21T04:31:15;101199.13;;;7.62;89.90
21781;BME280;52576;53.614;9.894;2023-03-21T04:33:33;101190.38;;;7.63;90.05
21781;BME280;52576;53.614;9.894;2023-03-21T04:35:40;101196.44;;;7.64;89.95
21781;BME280;52576;53.614;9.894;2023-03-21T04:37:43;101194.66;;;7.64;89.95
21781;BME280;52576;53.614;9.894;2023-03-21T04:39:49;101192.91;;;7.65;89.98
21781;BME280;52576;53.614;9.894;2023-03-21T04:41:53;101194.59;;;7.66;90.07
21781;BME280;52576;53.614;9.894;2023-03-21T04:43:58;101195.44;;;7.66;89.90
21781;BME280;52576;53.614;9.894;2023-03-21T04:46:02;101189.31;;;7.67;89.90
21781;BME280;52576;53.614;9.894;2023-03-21T04:48:07;101190.16;;;7.68;89.90
21781;BME280;52576;53.614;9.894;2023-03-21T04:50:11;101189.25;;;7.69;90.05
21781;BME280;52576;53.614;9.894;2023-03-21T04:52:15;101190.09;;;7.69;89.96
21781;BME280;52576;53.614;9.894;2023-03-21T04:54:19;101186.56;;;7.70;90.03
21781;BME280;52576;53.614;9.894;2023-03-21T04:56:23;101193.47;;;7.71;90.10
21781;BME280;52576;53.614;9.894;2023-03-21T04:58:31;101189.94;;;7.72;90.01
21781;BME280;52576;53.614;9.894;2023-03-21T05:00:36;101187.41;;;7.71;90.05
21781;BME280;52576;53.614;9.894;2023-03-21T05:02:40;101190.84;;;7.71;90.05
21781;BME280;52576;53.614;9.894;2023-03-21T05:04:43;101188.25;;;7.71;90.04
21781;BME280;52576;53.614;9.894;2023-03-21T05:06:47;101187.41;;;7.71;90.04
21781;BME280;52576;53.614;9.894;2023-03-21T05:08:50;101186.56;;;7.70;90.12
21781;BME280;52576;53.614;9.894;2023-03-21T05:10:54;101186.56;;;7.70;90.09
21781;BME280;52576;53.614;9.894;2023-03-21T05:13:00;101188.25;;;7.71;89.92
21781;BME280;52576;53.614;9.894;2023-03-21T05:15:05;101193.47;;;7.71;89.95
21781;BME280;52576;53.614;9.894;2023-03-21T05:17:12;101189.09;;;7.72;90.02
21781;BME280;52576;53.614;9.894;2023-03-21T05:19:28;101189.94;;;7.72;90.17
21781;BME280;52576;53.614;9.894;2023-03-21T05:21:37;101184.56;;;7.75;90.03
21781;BME280;52576;53.614;9.894;2023-03-21T05:23:50;101181.97;;;7.75;90.09
21781;BME280;52576;53.614;9.894;2023-03-21T05:25:55;101186.28;;;7.76;90.15
21781;BME280;52576;53.614;9.894;2023-03-21T05:28:11;101187.13;;;7.77;90.14
21781;BME280;52576;53.614;9.894;2023-03-21T05:30:17;101177.53;;;7.77;90.02
21781;BME280;52576;53.614;9.894;2023-03-21T05:32:24;101177.53;;;7.77;90.12
21781;BME280;52576;53.614;9.894;2023-03-21T05:34:27;101180.91;;;7.79;90.14
21781;BME280;52576;53.614;9.894;2023-03-21T05:36:34;101178.28;;;7.79;90.14
21781;BME280;52576;53.614;9.894;2023-03-21T05:38:41;101166.91;;;7.80;90.28
21781;BME280;52576;53.614;9.894;2023-03-21T05:40:47;101175.50;;;7.82;90.15
21781;BME280;52576;53.614;9.894;2023-03-21T05:42:51;101166.75;;;7.83;90.20
21781;BME280;52576;53.614;9.894;2023-03-21T05:44:57;101164.91;;;7.86;90.27
21781;BME280;52576;53.614;9.894;2023-03-21T05:47:05;101168.31;;;7.88;90.30
21781;BME280;52576;53.614;9.894;2023-03-21T05:49:18;101170.75;;;7.91;90.21
21781;BME280;52576;53.614;9.894;2023-03-21T05:51:29;101163.78;;;7.91;90.27
21781;BME280;52576;53.614;9.894;2023-03-21T05:53:32;101167.16;;;7.93;90.18
21781;BME280;52576;53.614;9.894;2023-03-21T05:55:36;101168.84;;;7.94;90.02
21781;BME280;52576;53.614;9.894;2023-03-21T05:57:44;101167.00;;;7.96;90.13
21781;BME280;52576;53.614;9.894;2023-03-21T05:59:56;101163.47;;;7.97;90.17
21781;BME280;52576;53.614;9.894;2023-03-21T06:02:01;101160.03;;;7.97;90.13
21781;BME280;52576;53.614;9.894;2023-03-21T06:04:05;101175.63;;;7.98;89.96
21781;BME280;52576;53.614;9.894;2023-03-21T06:06:11;101172.16;;;7.98;90.02
21781;BME280;52576;53.614;9.894;2023-03-21T06:08:23;101170.16;;;8.03;90.05
21781;BME280;52576;53.614;9.894;2023-03-21T06:10:26;101163.19;;;8.03;90.11
21781;BME280;52576;53.614;9.894;2023-03-21T06:12:31;101162.25;;;8.04;90.03
21781;BME280;52576;53.614;9.894;2023-03-21T06:14:40;101157.88;;;8.05;89.99
21781;BME280;52576;53.614;9.894;2023-03-21T06:16:51;101158.72;;;8.05;90.01
21781;BME280;52576;53.614;9.894;2023-03-21T06:18:55;101163.97;;;8.05;90.10
21781;BME280;52576;53.614;9.894;2023-03-21T06:21:14;101165.72;;;8.05;90.00
21781;BME280;52576;53.614;9.894;2023-03-21T06:23:18;101159.56;;;8.06;89.85
21781;BME280;52576;53.614;9.894;2023-03-21T06:25:22;101156.03;;;8.07;90.07
21781;BME280;52576;53.614;9.894;2023-03-21T06:27:25;101163.00;;;8.06;90.03
21781;BME280;52576;53.614;9.894;2023-03-21T06:29:29;101160.31;;;8.08;89.98
21781;BME280;52576;53.614;9.894;2023-03-21T06:31:33;101163.69;;;8.10;89.98
21781;BME280;52576;53.614;9.894;2023-03-21T06:33:37;101152.34;;;8.11;89.97
21781;BME280;52576;53.614;9.894;2023-03-21T06:35:40;101151.34;;;8.13;89.94
21781;BME280;52576;53.614;9.894;2023-03-21T06:37:46;101156.47;;;8.15;90.02
21781;BME280;52576;53.614;9.894;2023-03-21T06:39:53;101147.72;;;8.16;89.87
21781;BME280;52576;53.614;9.894;2023-03-21T06:42:31;101145.13;;;8.16;89.82
21781;BME280;52576;53.614;9.894;2023-03-21T06:44:42;101154.50;;;8.20;89.72
21781;BME280;52576;53.614;9.894;2023-03-21T06:46:48;101151.72;;;8.23;89.62
21781;BME280;52576;53.614;9.894;2023-03-21T06:48:53;101157.72;;;8.25;89.86
21781;BME280;52576;53.614;9.894;2023-03-21T06:50:56;101152.50;;;8.25;89.74
21781;BME280;52576;53.614;9.894;2023-03-21T06:53:03;101157.72;;;8.25;89.81
21781;BME280;52576;53.614;9.894;2023-03-21T06:55:18;101159.41;;;8.26;89.80
21781;BME280;52576;53.614;9.894;2023-03-21T06:57:27;101154.19;;;8.26;89.80
21781;BME280;52576;53.614;9.894;2023-03-21T06:59:31;101158.50;;;8.27;89.76
21781;BME280;52576;53.614;9.894;2023-03-21T07:01:37;101159.25;;;8.29;89.82
21781;BME280;52576;53.614;9.894;2023-03-21T07:03:43;101162.72;;;8.30;89.75
21781;BME280;52576;53.614;9.894;2023-03-21T07:05:47;101159.09;;;8.32;89.74
21781;BME280;52576;53.614;9.894;2023-03-21T07:07:54;101166.03;;;8.33;89.73
21781;BME280;52576;53.614;9.894;2023-03-21T07:10:03;101157.25;;;8.34;89.61
21781;BME280;52576;53.614;9.894;2023-03-21T07:12:17;101161.56;;;8.35;89.63
21781;BME280;52576;53.614;9.894;2023-03-21T07:14:44;101169.25;;;8.38;89.70
21781;BME280;52576;53.614;9.894;2023-03-21T07:16:47;101165.72;;;8.39;89.68
21781;BME280;52576;53.614;9.894;2023-03-21T07:18:51;101163.94;;;8.40;89.69
21781;BME280;52576;53.614;9.894;2023-03-21T07:20:56;101168.16;;;8.42;89.63
21781;BME280;52576;53.614;9.894;2023-03-21T07:22:59;101162.88;;;8.44;89.61
21781;BME280;52576;53.614;9.894;2023-03-21T07:25:06;101158.50;;;8.44;89.60
21781;BME280;52576;53.614;9.894;2023-03-21T07:27:14;101165.41;;;8.45;89.46
21781;BME280;52576;53.614;9.894;2023-03-21T07:29:19;101161.88;;;8.46;89.56
21781;BME280;52576;53.614;9.894;2023-03-21T07:31:24;101154.81;;;8.48;89.50
21781;BME280;52576;53.614;9.894;2023-03-21T07:33:28;101173.84;;;8.50;89.55
21781;BME280;52576;53.614;9.894;2023-03-21T07:35:34;101161.72;;;8.49;89.53
21781;BME280;52576;53.614;9.894;2023-03-21T07:37:40;101156.50;;;8.49;89.48
21781;BME280;52576;53.614;9.894;2023-03-21T07:39:46;101164.25;;;8.51;89.46
21781;BME280;52576;53.614;9.894;2023-03-21T07:41:52;101158.19;;;8.50;89.30
21781;BME280;52576;53.614;9.894;2023-03-21T07:44:07;101158.19;;;8.50;89.47
21781;BME280;52576;53.614;9.894;2023-03-21T07:46:10;101154.66;;;8.52;89.43
21781;BME280;52576;53.614;9.894;2023-03-21T07:48:14;101148.56;;;8.51;89.53
21781;BME280;52576;53.614;9.894;2023-03-21T07:50:19;101154.66;;;8.52;89.32
21781;BME280;52576;53.614;9.894;2023-03-21T07:52:23;101156.34;;;8.53;89.27
21781;BME280;52576;53.614;9.894;2023-03-21T07:54:26;101156.34;;;8.53;89.48
21781;BME280;52576;53.614;9.894;2023-03-21T07:56:31;101162.41;;;8.53;89.38
21781;BME280;52576;53.614;9.894;2023-03-21T07:58:36;101152.78;;;8.54;89.41
21781;BME280;52576;53.614;9.894;2023-03-21T08:00:39;101152.78;;;8.54;89.35
21781;BME280;52576;53.614;9.894;2023-03-21T08:02:43;101158.88;;;8.54;89.33
21781;BME280;52576;53.614;9.894;2023-03-21T08:04:47;101152.78;;;8.54;89.30
21781;BME280;52576;53.614;9.894;2023-03-21T08:06:50;101151.94;;;8.53;89.37
21781;BME280;52576;53.614;9.894;2023-03-21T08:08:54;101153.56;;;8.56;89.38
21781;BME280;52576;53.614;9.894;2023-03-21T08:10:57;101153.47;;;8.57;89.31
21781;BME280;52576;53.614;9.894;2023-03-21T08:13:01;101156.00;;;8.59;89.35
21781;BME280;52576;53.614;9.894;2023-03-21T08:15:07;101153.22;;;8.62;89.42
21781;BME280;52576;53.614;9.894;2023-03-21T08:17:11;101148.75;;;8.64;89.50
21781;BME280;52576;53.614;9.894;2023-03-21T08:19:14;101152.13;;;8.66;89.50
21781;BME280;52576;53.614;9.894;2023-03-21T08:21:19;101144.22;;;8.67;89.42
21781;BME280;52576;53.614;9.894;2023-03-21T08:23:23;101147.69;;;8.68;89.28
21781;BME280;52576;53.614;9.894;2023-03-21T08:25:28;101142.28;;;8.71;89.29
21781;BME280;52576;53.614;9.894;2023-03-21T08:27:31;101148.28;;;8.73;89.35
21781;BME280;52576;53.614;9.894;2023-03-21T08:29:36;101148.13;;;8.76;89.46
21781;BME280;52576;53.614;9.894;2023-03-21T08:31:43;101142.75;;;8.79;89.33
21781;BME280;52576;53.614;9.894;2023-03-21T08:33:46;101152.19;;;8.81;89.30
21781;BME280;52576;53.614;9.894;2023-03-21T08:35:52;101144.34;;;8.81;89.32
21781;BME280;52576;53.614;9.894;2023-03-21T08:37:56;101149.50;;;8.83;89.22
21781;BME280;52576;53.614;9.894;2023-03-21T08:40:00;101145.91;;;8.84;89.25
21781;BME280;52576;53.614;9.894;2023-03-21T08:42:08;101142.38;;;8.85;89.10
21781;BME280;52576;53.614;9.894;2023-03-21T08:44:11;101145.75;;;8.87;89.06
21781;BME280;52576;53.614;9.894;2023-03-21T08:46:17;101144.84;;;8.88;89.05
21781;BME280;52576;53.614;9.894;2023-03-21T08:48:22;101145.59;;;8.90;89.18
21781;BME280;52576;53.614;9.894;2023-03-21T08:50:26;101150.81;;;8.90;89.10
21781;BME280;52576;53.614;9.894;2023-03-21T08:52:32;101150.66;;;8.93;89.14
21781;BME280;52576;53.614;9.894;2023-03-21T08:54:36;101147.13;;;8.94;88.99
21781;BME280;52576;53.614;9.894;2023-03-21T08:56:39;101140.06;;;8.96;89.08
21781;BME280;52576;53.614;9.894;2023-03-21T08:58:43;101143.44;;;8.98;88.96
21781;BME280;52576;53.614;9.894;2023-03-21T09:00:47;101145.88;;;9.01;89.04
21781;BME280;52576;53.614;9.894;2023-03-21T09:02:50;101146.63;;;9.03;88.83
21781;BME280;52576;53.614;9.894;2023-03-21T09:04:57;101143.78;;;9.08;88.81
21781;BME280;52576;53.614;9.894;2023-03-21T09:07:00;101142.75;;;9.10;88.76
21781;BME280;52576;53.614;9.894;2023-03-21T09:09:07;101139.97;;;9.13;88.73
21781;BME280;52576;53.614;9.894;2023-03-21T09:11:11;101140.72;;;9.15;88.45
21781;BME280;52576;53.614;9.894;2023-03-21T09:13:14;101138.88;;;9.17;88.53
21781;BME280;52576;53.614;9.894;2023-03-21T09:15:20;101136.09;;;9.21;88.59
21781;BME280;52576;53.614;9.894;2023-03-21T09:17:25;101136.84;;;9.23;88.52
21781;BME280;52576;53.614;9.894;2023-03-21T09:19:30;101142.84;;;9.25;88.41
21781;BME280;52576;53.614;9.894;2023-03-21T09:21:38;101141.91;;;9.26;88.35
21781;BME280;52576;53.614;9.894;2023-03-21T09:23:45;101136.69;;;9.26;88.35
21781;BME280;52576;53.614;9.894;2023-03-21T09:25:49;101135.75;;;9.27;88.18
21781;BME280;52576;53.614;9.894;2023-03-21T09:27:53;101146.97;;;9.29;88.18
21781;BME280;52576;53.614;9.894;2023-03-21T09:29:56;101145.97;;;9.31;88.30
21781;BME280;52576;53.614;9.894;2023-03-21T09:32:01;101141.41;;;9.35;88.12
21781;BME280;52576;53.614;9.894;2023-03-21T09:34:07;101144.69;;;9.38;88.10
21781;BME280;52576;53.614;9.894;2023-03-21T09:36:11;101137.50;;;9.42;88.01
21781;BME280;52576;53.614;9.894;2023-03-21T09:38:17;101134.81;;;9.43;87.86
21781;BME280;52576;53.614;9.894;2023-03-21T09:40:30;101139.03;;;9.46;87.87
21781;BME280;52576;53.614;9.894;2023-03-21T09:42:48;101137.16;;;9.48;87.73
21781;BME280;52576;53.614;9.894;2023-03-21T09:45:00;101135.91;;;9.55;87.69
21781;BME280;52576;53.614;9.894;2023-03-21T09:47:13;101137.22;;;9.62;87.56
21781;BME280;52576;53.614;9.894;2023-03-21T09:49:23;101139.50;;;9.68;87.45
21781;BME280;52576;53.614;9.894;2023-03-21T09:51:35;101137.47;;;9.73;87.36
21781;BME280;52576;53.614;9.894;2023-03-21T09:53:44;101133.75;;;9.77;87.39
21781;BME280;52576;53.614;9.894;2023-03-21T09:55:49;101135.44;;;9.78;87.30
21781;BME280;52576;53.614;9.894;2023-03-21T09:58:03;101136.19;;;9.80;87.30
21781;BME280;52576;53.614;9.894;2023-03-21T10:00:14;101134.31;;;9.82;87.27
21781;BME280;52576;53.614;9.894;2023-03-21T10:02:34;101136.00;;;9.83;87.12
21781;BME280;52576;53.614;9.894;2023-03-21T10:04:38;101128.91;;;9.85;87.04
21781;BME280;52576;53.614;9.894;2023-03-21T10:06:43;101131.31;;;9.88;87.08
21781;BME280;52576;53.614;9.894;2023-03-21T10:08:50;101131.16;;;9.92;87.02
21781;BME280;52576;53.614;9.894;2023-03-21T10:10:55;101135.44;;;9.93;86.99
21781;BME280;52576;53.614;9.894;2023-03-21T10:13:04;101135.28;;;9.96;87.02
21781;BME280;52576;53.614;9.894;2023-03-21T10:15:14;101134.34;;;9.97;86.74
21781;BME280;52576;53.614;9.894;2023-03-21T10:17:27;101120.50;;;9.95;86.55
21781;BME280;52576;53.614;9.894;2023-03-21T10:19:32;101127.50;;;9.94;86.77
21781;BME280;52576;53.614;9.894;2023-03-21T10:21:37;101120.50;;;9.95;86.70
21781;BME280;52576;53.614;9.894;2023-03-21T10:24:02;101124.81;;;9.96;86.78
21781;BME280;52576;53.614;9.894;2023-03-21T10:26:06;101130.78;;;9.98;86.71
21781;BME280;52576;53.614;9.894;2023-03-21T10:28:16;101123.88;;;9.97;86.67
21781;BME280;52576;53.614;9.894;2023-03-21T10:30:29;101118.63;;;9.97;86.55
21781;BME280;52576;53.614;9.894;2023-03-21T10:32:34;101121.06;;;10.00;86.73
21781;BME280;52576;53.614;9.894;2023-03-21T10:34:42;101116.78;;;9.99;86.55
21781;BME280;52576;53.614;9.894;2023-03-21T10:36:46;101109.84;;;9.98;86.60
21781;BME280;52576;53.614;9.894;2023-03-21T10:38:53;101111.53;;;9.99;86.85
21781;BME280;52576;53.614;9.894;2023-03-21T10:40:58;101104.44;;;10.01;86.90
21781;BME280;52576;53.614;9.894;2023-03-21T10:43:19;101108.56;;;10.05;86.94
21781;BME280;52576;53.614;9.894;2023-03-21T10:45:23;101109.13;;;10.10;86.97
21781;BME280;52576;53.614;9.894;2023-03-21T10:47:29;101107.91;;;10.15;86.92
21781;BME280;52576;53.614;9.894;2023-03-21T10:49:35;101103.38;;;10.19;87.11
21781;BME280;52576;53.614;9.894;2023-03-21T10:52:03;101110.09;;;10.23;86.82
21781;BME280;52576;53.614;9.894;2023-03-21T10:54:12;101100.47;;;10.24;86.74
21781;BME280;52576;53.614;9.894;2023-03-21T10:56:17;101100.56;;;10.22;86.70
21781;BME280;52576;53.614;9.894;2023-03-21T10:58:28;101106.88;;;10.18;86.59
21781;BME280;52576;53.614;9.894;2023-03-21T11:00:37;101099.28;;;10.13;86.51
21781;BME280;52576;53.614;9.894;2023-03-21T11:02:46;101097.81;;;10.09;86.50
21781;BME280;52576;53.614;9.894;2023-03-21T11:04:51;101099.78;;;10.06;86.47
21781;BME280;52576;53.614;9.894;2023-03-21T11:06:56;101096.41;;;10.04;86.55
21781;BME280;52576;53.614;9.894;2023-03-21T11:09:04;101099.19;;;10.01;86.68
21781;BME280;52576;53.614;9.894;2023-03-21T11:11:20;101096.66;;;9.99;86.64
21781;BME280;52576;53.614;9.894;2023-03-21T11:13:26;101096.00;;;9.96;86.67
21781;BME280;52576;53.614;9.894;2023-03-21T11:15:41;101089.16;;;9.93;86.60
21781;BME280;52576;53.614;9.894;2023-03-21T11:17:51;101087.47;;;9.92;86.64
21781;BME280;52576;53.614;9.894;2023-03-21T11:19:57;101093.47;;;9.94;86.81
21781;BME280;52576;53.614;9.894;2023-03-21T11:22:04;101091.53;;;9.98;86.88
21781;BME280;52576;53.614;9.894;2023-03-21T11:24:12;101089.66;;;10.00;86.80
21781;BME280;52576;53.614;9.894;2023-03-21T11:26:20;101087.88;;;10.00;86.77
21781;BME280;52576;53.614;9.894;2023-03-21T11:28:29;101085.16;;;10.02;86.80